Kobuk Valley National Park, AK

6:13 AM AKDT op 01 oktober 2014 (GMT -0800)
Ambler | Change Station
CLOSE
Current Station
Luchthaven
Location: Ambler,
Geometrische hoogte: 289 ft
Nabije weerstations

Hoogte 289 ft 67.11 °N, 157.86 °W | Updated 9 days ago

Rain
Regen
41 °F
Voelt als 41 °F
N
13
Wind Variabel Wind van ZZW
Gusts 14 mijl/u

Vandaag
Hoog -- | Laag -- °F
--% Kans op neerslag
Gisteren
Hoog -- | Laag -- °F
Precip. -- inches
8:54 AM 8:05 PM
Wassende halvemaan, 48% visible
Druk 29.77 inches
Zicht 10.0 mijlen
Wolken Helder
Dauwpunt 34 °F
Vochtigheid 74%
Neerslag 0.00 inches
Dikte sneeuw Niet beschikbaar.
UV 2 van de 12
Pollen Niet beschikbaar.
Luchtkwaliteit Niet beschikbaar.
Flu Activity Niet beschikbaar.
METAR PAFM 212356Z AUTO 02010G16KT 10SM CLR 05/M05 A2977 RMK AO1 10050 20020 400701010 57003

More Conditions Fewer Conditions

Druk 29.77 inches
Zicht 10.0 mijlen
Wolken Helder
Dauwpunt 34 °F
Vochtigheid 74%
Neerslag 0.00 inches
Dikte sneeuw Niet beschikbaar.
UV 2 van de 12
Pollen Niet beschikbaar.
Luchtkwaliteit Niet beschikbaar.
Flu Activity Niet beschikbaar.
METAR PAFM 212356Z AUTO 02010G16KT 10SM CLR 05/M05 A2977 RMK AO1 10050 20020 400701010 57003

More Conditions Fewer Conditions

10-Day Weather Forecast

Almanac

Astronomie

Oct. 01, 2014 Opkomst Ondergang
Werkelijke tijd 8:54 AM AKDT 8:05 PM AKDT
Burgerlijke schemering 8:00 AM AKDT 8:59 PM AKDT
Nautische schemering 6:55 AM AKDT 10:03 PM AKDT
Astronomische schemering 5:42 AM AKDT 11:15 PM AKDT
Maan 6:14 PM AKDT 11:45 PM AKDT
Golflengte van het zichtbare licht 12h 59m
Daglengte
11h 10m
Tomorrow will be 7m 35s shorter.
Wassende halvemaan, 48% of the Moon is Illuminated
Vandaag
Wassende halvemaan
oktober 1
Eerste kwartier
oktober 8
Volle maan
oktober 15
Laatste kwartier
oktober 23
Nieuw

Extremen vandaag

State Highs State Lows

Community

WunderPhotos

Upload Photos

1,757,952 foto’s ge-upload!

Nearby

Luchtkwaliteit

Not available.

Dikte sneeuw

Station Depth Geometrische hoogte
Point Mackenzie 1 in 200 ft
Munson Ridge 6 in 3100 ft
Grandview 5 in 1100 ft
Summit Creek 0 in 1400 ft
Turnagain Pass 1 in 1880 ft

Aardbevingen

Stad Distance Mag. Time & Date
No recent earthquake activity has been reported nearby.
Minimum magnitude displayed is 2.5.

Watertemperatuur langs de kust

Plaats Temperatuur
Geen meldingen van stations

Nabije weerstations